Time;durP1;ratioP1;P1;durP2;ratioP2;P2;SDS_P1;SDS_P2;PMS_P1;PMS_P2;Temp;Humidity;BMP_temperature;BMP_pressure;BME280_temperature;BME280_humidity;BME280_pressure;Samples;Min_cycle;Max_cycle;Signal;HPM_P1;HPM_P2
2021/06/12 00:01:44;;;;;;;3.33;1.20;;;26.20;45.70;;;29.96;30.40;101322.34;5155422;27;20062;-50
2021/06/12 00:04:11;;;;;;;2.72;1.40;;;26.20;45.70;;;29.95;30.44;101331.44;5135490;27;20412;-52
2021/06/12 00:06:36;;;;;;;1.80;1.20;;;26.20;45.70;;;29.97;30.48;101345.63;5155753;27;20046;-53
2021/06/12 00:09:05;;;;;;;1.98;1.40;;;26.20;45.70;;;29.93;30.65;101328.88;5155353;27;20511;-46
2021/06/12 00:11:31;;;;;;;2.05;1.20;;;26.10;45.70;;;29.95;30.56;101326.03;5155299;27;20058;-50
2021/06/12 00:13:57;;;;;;;2.75;1.75;;;26.20;45.80;;;29.95;30.62;101337.66;5155598;27;20402;-52
2021/06/12 00:16:22;;;;;;;1.75;1.33;;;26.10;45.70;;;29.89;30.64;101322.06;5155850;27;20050;-50
2021/06/12 00:18:48;;;;;;;1.65;1.50;;;26.10;45.80;;;29.92;30.62;101327.16;5155219;27;20050;-52
2021/06/12 00:21:14;;;;;;;2.42;1.30;;;26.10;45.80;;;29.90;30.78;101323.75;5155557;27;20123;-52
2021/06/12 00:23:41;;;;;;;2.22;1.02;;;26.10;45.80;;;29.90;30.64;101330.03;5155518;27;20499;-52
2021/06/12 00:26:08;;;;;;;2.15;1.30;;;26.10;45.80;;;29.88;30.58;101315.81;5155161;27;20051;-46
2021/06/12 00:28:37;;;;;;;3.15;1.48;;;26.10;45.80;;;29.89;30.62;101331.00;5155163;27;20047;-52
2021/06/12 00:31:05;;;;;;;3.15;1.23;;;26.10;45.90;;;29.86;30.66;101319.66;5155091;27;20046;-48
2021/06/12 00:33:31;;;;;;;1.30;1.20;;;26.10;45.90;;;29.86;30.61;101328.59;5154977;27;20050;-53
2021/06/12 00:35:56;;;;;;;2.08;1.38;;;26.10;45.90;;;29.87;30.59;101327.63;5154627;27;20150;-50
2021/06/12 00:38:22;;;;;;;1.95;1.30;;;26.10;45.90;;;29.87;30.68;101330.31;5154382;27;20051;-51
2021/06/12 00:40:48;;;;;;;2.33;1.20;;;26.10;46.00;;;29.84;30.79;101318.97;5136461;27;20066;-52
2021/06/12 00:43:14;;;;;;;1.52;1.40;;;26.10;46.00;;;29.86;30.83;101328.59;5136206;27;20487;-51
2021/06/12 00:45:45;;;;;;;2.55;1.45;;;26.10;46.00;;;29.85;30.64;101326.03;5154539;27;20051;-50
2021/06/12 00:48:11;;;;;;;1.33;1.23;;;26.00;46.00;;;29.82;30.68;101331.72;5154445;27;20043;-54
2021/06/12 00:50:37;;;;;;;1.40;1.10;;;26.00;46.00;;;29.82;30.65;101329.00;5154565;27;20051;-53
2021/06/12 00:53:03;;;;;;;1.70;1.33;;;26.00;46.00;;;29.80;30.89;101320.22;5154570;27;20035;-48
2021/06/12 00:55:29;;;;;;;1.55;1.35;;;26.00;46.00;;;29.79;30.64;101319.38;5154711;27;20560;-54
2021/06/12 00:57:55;;;;;;;2.58;1.17;;;26.00;46.00;;;29.78;30.70;101327.59;5154513;27;20046;-52
2021/06/12 01:00:22;;;;;;;1.50;1.40;;;26.00;46.00;;;29.78;30.91;101320.38;5136601;27;20463;-48
2021/06/12 01:02:49;;;;;;;2.05;1.52;;;26.00;46.00;;;29.77;30.78;101317.78;5154871;27;20046;-49
2021/06/12 01:05:17;;;;;;;1.33;1.20;;;26.00;46.10;;;29.77;30.91;101313.28;5154854;27;20039;-48
2021/06/12 01:07:43;;;;;;;1.33;1.23;;;26.00;46.10;;;29.77;30.88;101318.69;5135942;27;20487;-53
2021/06/12 01:10:13;;;;;;;3.00;1.40;;;26.00;46.10;;;29.75;30.82;101305.31;5135778;27;20039;-47
2021/06/12 01:13:06;;;;;;;2.45;1.38;;;25.90;46.10;;;29.74;30.75;101308.16;5155031;27;20490;-52
2021/06/12 01:15:49;;;;;;;2.00;1.23;;;25.90;46.10;;;29.74;30.87;101294.69;5136473;27;20133;-51
2021/06/12 01:18:18;;;;;;;1.40;1.20;;;25.90;46.10;;;29.73;30.70;101284.88;5134837;27;20075;-53
2021/06/12 01:20:59;;;;;;;1.50;1.35;;;25.90;46.10;;;29.72;30.95;101293.94;5134360;27;20051;-51
2021/06/12 01:24:18;;;;;;;2.28;1.35;;;26.00;46.30;;;29.72;31.03;101289.44;5135589;27;20050;-48
2021/06/12 01:26:59;;;;;;;3.28;1.30;;;25.90;46.20;;;29.70;30.88;101293.25;5154142;27;20050;-53
2021/06/12 01:29:54;;;;;;;1.30;1.20;;;25.90;46.20;;;29.66;30.77;101278.38;5154156;27;20510;-50
2021/06/12 01:32:21;;;;;;;3.05;1.23;;;25.90;46.30;;;29.69;30.83;101283.47;5135624;27;20082;-52
2021/06/12 01:34:48;;;;;;;1.50;1.40;;;25.90;46.30;;;29.68;31.05;101285.28;5154753;27;20491;-51
2021/06/12 01:37:18;;;;;;;1.58;1.10;;;25.90;46.30;;;29.68;31.07;101288.00;5135490;27;20054;-54
2021/06/12 01:39:45;;;;;;;1.10;0.98;;;25.90;46.30;;;29.69;30.94;101292.41;5135362;27;20050;-53
2021/06/12 01:42:13;;;;;;;2.63;1.50;;;25.90;46.30;;;29.69;30.77;101280.78;5135502;27;20047;-50
2021/06/12 01:44:40;;;;;;;1.20;1.10;;;25.90;46.40;;;29.68;30.85;101276.38;5135356;27;20049;-52
2021/06/12 01:47:07;;;;;;;1.70;1.23;;;25.90;46.40;;;29.67;31.03;101280.91;5134262;27;20043;-50
2021/06/12 01:49:35;;;;;;;1.67;1.30;;;25.80;46.30;;;29.67;31.22;101277.34;5135720;27;20042;-51
2021/06/12 01:52:01;;;;;;;1.30;1.20;;;25.80;46.30;;;29.65;31.20;101268.56;5135493;27;20051;-53
2021/06/12 01:54:29;;;;;;;1.67;1.30;;;25.80;46.30;;;29.62;30.99;101266.16;5154195;27;20047;-51
2021/06/12 01:56:55;;;;;;;2.08;1.40;;;25.80;46.30;;;29.67;30.94;101269.25;5136211;27;20046;-50
2021/06/12 01:59:22;;;;;;;1.50;1.30;;;25.80;46.30;;;29.63;31.11;101266.00;5137637;27;20053;-48
2021/06/12 02:01:52;;;;;;;1.33;1.23;;;25.80;46.30;;;29.63;31.06;101263.31;5139006;27;20507;-52
2021/06/12 02:04:19;;;;;;;1.90;1.00;;;25.80;46.30;;;29.63;31.07;101268.72;5157388;27;20042;-51
2021/06/12 02:06:46;;;;;;;2.15;1.30;;;25.80;46.40;;;29.61;31.30;101259.91;5157628;27;20043;-51
2021/06/12 02:09:15;;;;;;;1.30;1.20;;;25.80;46.40;;;29.62;31.28;101249.97;5157310;27;20404;-54
2021/06/12 02:11:41;;;;;;;1.77;1.38;;;25.80;46.40;;;29.61;30.94;101251.84;5157178;27;20412;-52
2021/06/12 02:14:09;;;;;;;1.23;1.10;;;25.80;46.40;;;29.63;31.16;101247.16;5157351;27;20516;-46
2021/06/12 02:16:38;;;;;;;1.77;1.15;;;25.80;46.40;;;29.60;31.18;101247.44;5138677;27;20077;-50
2021/06/12 02:19:05;;;;;;;3.22;1.20;;;25.80;46.50;;;29.61;31.04;101242.91;5156903;27;20046;-48
2021/06/12 02:21:36;;;;;;;1.20;1.10;;;25.80;46.50;;;29.58;31.19;101249.44;5138634;27;20497;-49
2021/06/12 02:24:03;;;;;;;1.52;1.13;;;25.70;46.40;;;29.59;31.32;101253.84;5138680;27;20552;-47
2021/06/12 02:26:38;;;;;;;1.58;1.20;;;25.80;46.50;;;29.55;31.04;101241.63;5157285;27;20051;-48
2021/06/12 02:29:04;;;;;;;2.17;1.63;;;25.80;46.50;;;29.53;30.97;101243.63;5157018;27;20058;-52
2021/06/12 02:31:37;;;;;;;1.58;1.38;;;25.80;46.60;;;29.53;31.22;101252.53;5139057;27;20111;-51
2021/06/12 02:34:03;;;;;;;1.40;1.23;;;25.80;46.60;;;29.56;31.04;101260.34;5157055;27;20068;-52
2021/06/12 02:36:29;;;;;;;1.52;1.30;;;25.70;46.50;;;29.56;31.15;101254.13;5157111;27;20047;-54
2021/06/12 02:38:54;;;;;;;1.98;1.05;;;25.70;46.60;;;29.52;31.05;101258.06;5156705;27;20047;-51
2021/06/12 02:41:22;;;;;;;1.98;1.42;;;25.70;46.60;;;29.53;31.35;101254.41;5135973;27;20054;-52
2021/06/12 02:43:48;;;;;;;2.38;1.00;;;25.70;46.60;;;29.52;31.34;101248.16;5156866;27;20395;-52
2021/06/12 02:46:21;;;;;;;2.28;1.35;;;25.70;46.60;;;29.51;31.40;101246.44;5156981;27;20046;-51
2021/06/12 02:48:55;;;;;;;1.60;1.35;;;25.70;46.60;;;29.51;31.28;101253.69;5138293;27;20046;-53
2021/06/12 02:51:22;;;;;;;1.55;1.20;;;25.70;46.60;;;29.51;31.28;101248.31;5138050;27;20043;-54
2021/06/12 02:53:48;;;;;;;1.83;1.10;;;25.70;46.70;;;29.48;31.04;101241.34;5138122;27;20055;-51
2021/06/12 02:56:16;;;;;;;2.55;1.20;;;25.70;46.70;;;29.49;31.15;101234.97;5137974;27;20103;-51
2021/06/12 02:58:44;;;;;;;1.15;1.05;;;25.70;46.70;;;29.49;31.39;101240.34;5138449;27;20074;-49
2021/06/12 03:01:13;;;;;;;2.15;1.48;;;25.70;46.70;;;29.49;31.23;101243.06;5152860;27;20039;-48
2021/06/12 03:03:43;;;;;;;1.35;1.25;;;25.70;46.70;;;29.46;31.21;101237.09;5136183;27;20168;-49
2021/06/12 03:06:11;;;;;;;1.77;1.20;;;25.70;46.80;;;29.47;31.07;101236.09;5136099;27;20047;-54
2021/06/12 03:08:44;;;;;;;2.20;1.00;;;25.70;46.80;;;29.46;31.52;101234.41;5155105;27;20072;-49
2021/06/12 03:11:13;;;;;;;1.17;0.98;;;25.70;46.80;;;29.43;31.27;101224.75;5156583;27;20510;-50
2021/06/12 03:13:47;;;;;;;1.33;1.20;;;25.60;46.70;;;29.44;31.29;101226.47;5156416;27;20513;-54
2021/06/12 03:16:16;;;;;;;2.33;1.30;;;25.60;46.70;;;29.44;31.06;101221.09;5136249;27;20377;-50
2021/06/12 03:18:46;;;;;;;1.00;1.00;;;25.60;46.70;;;29.44;31.56;101226.47;5137703;27;20126;-50
2021/06/12 03:21:22;;;;;;;1.30;1.20;;;25.60;46.80;;;29.44;31.54;101233.72;5156194;27;20070;-50
2021/06/12 03:23:50;;;;;;;1.67;1.10;;;25.60;46.80;;;29.41;31.33;101218.66;5137542;27;20280;-51
2021/06/12 03:26:17;;;;;;;2.72;1.17;;;25.60;46.80;;;29.43;31.19;101219.38;5156109;27;20042;-52
2021/06/12 03:28:45;;;;;;;1.38;1.27;;;25.60;46.90;;;29.42;31.50;101222.19;5137495;27;20091;-46
2021/06/12 03:31:13;;;;;;;1.80;1.20;;;25.60;46.90;;;29.37;31.43;101220.81;5156648;27;20054;-47
2021/06/12 03:33:40;;;;;;;1.77;1.00;;;25.60;46.90;;;29.39;31.39;101215.28;5137662;27;20066;-53
2021/06/12 03:36:07;;;;;;;1.25;1.15;;;25.60;46.90;;;29.39;31.29;101223.34;5137454;27;20523;-49
2021/06/12 03:38:35;;;;;;;2.83;1.30;;;25.60;46.90;;;29.41;31.31;101228.59;5135646;27;20068;-52
2021/06/12 03:41:03;;;;;;;1.80;1.10;;;25.60;46.90;;;29.38;31.35;101216.25;5135610;27;20085;-51
2021/06/12 03:43:30;;;;;;;1.20;1.10;;;25.60;47.50;;;29.37;31.41;101215.41;5155849;27;20055;-50
2021/06/12 03:45:58;;;;;;;2.45;1.27;;;25.60;46.90;;;29.35;31.40;101212.03;5120336;27;20061;-46
2021/06/12 03:48:25;;;;;;;2.50;1.55;;;25.60;47.50;;;29.38;31.37;101221.66;5155590;27;20180;-49
2021/06/12 03:50:52;;;;;;;1.00;1.00;;;25.50;46.90;;;29.37;31.57;101226.19;5155429;27;20047;-50
2021/06/12 03:53:21;;;;;;;3.05;1.33;;;25.50;46.90;;;29.37;31.53;101223.50;5155953;27;20054;-50
2021/06/12 03:55:49;;;;;;;1.75;1.08;;;25.60;47.00;;;29.37;31.38;101228.03;5136075;27;20066;-51
2021/06/12 03:58:16;;;;;;;1.92;1.10;;;25.60;47.00;;;29.34;31.42;101218.38;5135438;27;20051;-48
2021/06/12 04:00:44;;;;;;;1.13;1.00;;;25.60;47.00;;;29.32;31.66;101215.00;5134941;27;20043;-48
2021/06/12 04:03:10;;;;;;;3.17;1.30;;;25.50;46.90;;;29.33;31.80;101221.22;5136600;27;20142;-46
2021/06/12 04:05:35;;;;;;;1.10;1.08;;;25.50;46.90;;;29.33;31.66;101222.06;5155497;27;20042;-50
2021/06/12 04:08:01;;;;;;;1.83;1.20;;;25.50;47.00;;;29.33;31.64;101230.13;5155368;27;20046;-49
2021/06/12 04:10:27;;;;;;;1.00;0.82;;;25.50;47.00;;;29.33;31.72;101229.31;5155400;27;20057;-49
2021/06/12 04:12:53;;;;;;;1.00;1.00;;;25.50;47.00;;;29.34;31.41;101231.00;5155416;27;20039;-51
2021/06/12 04:15:19;;;;;;;1.23;1.13;;;25.50;47.00;;;29.31;31.64;101234.81;5155627;27;20045;-48
2021/06/12 04:17:45;;;;;;;3.03;1.20;;;25.50;47.10;;;29.31;31.66;101223.22;5155175;27;20472;-53
2021/06/12 04:20:13;;;;;;;1.42;1.33;;;25.50;47.10;;;29.33;31.78;101229.31;5154831;27;20055;-51
2021/06/12 04:22:40;;;;;;;1.38;1.10;;;25.50;47.10;;;29.31;31.59;101213.28;5155212;27;20043;-51
2021/06/12 04:25:07;;;;;;;1.33;1.15;;;25.50;47.10;;;29.31;31.36;101224.06;5155076;27;20053;-52
2021/06/12 04:27:34;;;;;;;1.38;1.10;;;25.50;47.10;;;29.30;31.47;101217.00;5155143;27;20043;-51
2021/06/12 04:30:00;;;;;;;1.50;1.17;;;25.50;47.10;;;29.29;31.40;101211.75;5155007;27;20100;-48
2021/06/12 04:32:26;;;;;;;1.25;1.15;;;25.50;47.10;;;29.27;31.48;101203.78;5155106;27;20081;-51
2021/06/12 04:34:52;;;;;;;1.50;1.17;;;25.50;47.10;;;29.30;31.48;101206.22;5155097;27;20078;-53
2021/06/12 04:37:18;;;;;;;2.33;1.48;;;25.50;47.10;;;29.28;31.46;101210.88;5154974;27;20053;-53
2021/06/12 04:39:43;;;;;;;2.30;1.00;;;25.50;47.10;;;29.28;31.31;101208.16;5154903;27;20043;-48
2021/06/12 04:42:09;;;;;;;1.23;1.02;;;25.40;47.00;;;29.29;31.65;101214.44;5154968;27;20042;-52
2021/06/12 04:44:35;;;;;;;1.35;1.00;;;25.50;47.10;;;29.31;31.73;101215.13;5155229;27;20547;-47
2021/06/12 04:47:03;;;;;;;1.42;1.00;;;25.40;47.00;;;29.30;31.71;101232.28;5154967;27;20042;-49
2021/06/12 04:49:29;;;;;;;1.73;1.30;;;25.50;47.10;;;29.29;31.76;101223.34;5154646;27;20049;-50
2021/06/12 04:51:55;;;;;;;1.10;1.00;;;25.50;47.10;;;29.27;31.45;101208.31;5154796;27;20130;-48
2021/06/12 04:54:20;;;;;;;0.93;0.93;;;25.50;47.20;;;29.29;31.35;101214.44;5155114;27;20039;-51
2021/06/12 04:56:46;;;;;;;0.82;0.82;;;25.40;47.10;;;29.29;31.63;101215.28;5154483;27;20051;-51
2021/06/12 04:59:12;;;;;;;1.40;1.30;;;25.50;47.20;;;29.27;31.45;101219.97;5155143;27;20058;-49
2021/06/12 05:01:38;;;;;;;1.15;1.10;;;25.40;47.10;;;29.28;31.47;101216.25;5154743;27;20063;-50
2021/06/12 05:04:04;;;;;;;1.17;0.98;;;25.50;47.20;;;29.27;31.73;101211.00;5117125;27;20050;-49
2021/06/12 05:06:29;;;;;;;1.25;1.15;;;25.40;47.10;;;29.26;31.70;101218.25;5154823;27;20138;-50
2021/06/12 05:08:55;;;;;;;1.17;1.08;;;25.50;47.20;;;29.29;31.40;101220.66;5154692;27;20042;-51
2021/06/12 05:11:21;;;;;;;1.85;1.05;;;25.50;47.20;;;29.26;31.81;101217.41;5154551;27;20051;-50
2021/06/12 05:13:47;;;;;;;2.60;1.58;;;25.40;47.10;;;29.25;31.75;101230.00;5154591;27;20043;-48
2021/06/12 05:16:14;;;;;;;1.30;1.15;;;25.40;47.10;;;29.27;31.51;101227.16;5154502;27;20440;-49
2021/06/12 05:18:44;;;;;;;1.45;1.00;;;25.40;47.10;;;29.26;31.56;101231.72;5154491;27;20051;-52
2021/06/12 05:21:15;;;;;;;1.20;1.10;;;25.40;47.10;;;29.24;31.87;101227.47;5136276;27;20126;-49
2021/06/12 05:23:41;;;;;;;1.00;1.00;;;25.50;47.20;;;29.26;31.50;101234.41;5154171;27;20051;-49
2021/06/12 05:26:08;;;;;;;0.90;0.90;;;25.40;47.10;;;29.26;31.70;101230.88;5154269;27;20046;-49
2021/06/12 05:28:34;;;;;;;1.20;1.10;;;25.40;47.20;;;29.26;31.84;101228.19;5154074;27;20050;-46
2021/06/12 05:31:00;;;;;;;1.20;1.10;;;25.40;47.10;;;29.24;31.85;101222.09;5153810;27;20068;-47
2021/06/12 05:33:27;;;;;;;1.52;1.00;;;25.40;47.10;;;29.25;31.67;101224.59;5153626;27;20393;-47
2021/06/12 05:35:55;;;;;;;1.23;0.95;;;25.40;47.10;;;29.22;31.58;101211.44;5153905;27;20103;-46
2021/06/12 05:38:21;;;;;;;1.10;1.00;;;25.40;47.20;;;29.22;31.72;101218.66;5153859;27;20478;-47
2021/06/12 05:40:47;;;;;;;1.40;1.20;;;25.40;47.20;;;29.22;31.61;101214.16;5154038;27;20043;-51
2021/06/12 05:43:13;;;;;;;1.17;1.10;;;25.40;47.20;;;29.22;31.51;101218.66;5153913;27;20049;-46
2021/06/12 05:45:39;;;;;;;1.38;1.08;;;25.40;47.20;;;29.24;31.63;101205.94;5154114;27;20061;-51
2021/06/12 05:48:05;;;;;;;1.15;1.02;;;25.40;47.20;;;29.21;31.63;101204.34;5154305;27;20042;-50
2021/06/12 05:50:31;;;;;;;1.08;1.08;;;25.40;47.20;;;29.22;31.60;101194.41;5135467;27;20071;-48
2021/06/12 05:52:56;;;;;;;1.20;1.08;;;25.40;47.20;;;29.20;31.60;101194.56;5134962;27;20074;-45
2021/06/12 05:55:22;;;;;;;1.00;1.00;;;25.40;47.20;;;29.26;31.55;101209.31;5153719;27;20039;-52
2021/06/12 05:57:48;;;;;;;1.42;1.02;;;25.40;47.20;;;29.26;31.84;101203.94;5135308;27;20042;-52
2021/06/12 06:00:15;;;;;;;1.63;0.98;;;25.40;47.20;;;29.26;31.84;101206.63;5154041;27;20043;-49
2021/06/12 06:02:41;;;;;;;1.42;1.17;;;25.40;47.20;;;29.23;31.50;101199.66;5153721;27;20483;-49
2021/06/12 06:05:08;;;;;;;1.10;1.00;;;25.40;47.20;;;29.27;31.84;101201.09;5153951;27;20055;-46
2021/06/12 06:07:33;;;;;;;1.20;1.10;;;25.40;47.10;;;29.27;31.59;101203.78;5153996;27;20395;-50
2021/06/12 06:09:59;;;;;;;0.80;0.80;;;25.40;47.10;;;29.27;31.76;101202.94;5153821;27;20050;-48
2021/06/12 06:12:25;;;;;;;1.00;0.90;;;25.40;47.10;;;29.27;31.84;101203.78;5153650;27;20047;-52
2021/06/12 06:14:50;;;;;;;1.10;1.00;;;25.40;47.20;;;29.27;31.84;101208.31;5118350;27;20559;-46
2021/06/12 06:17:16;;;;;;;2.00;1.20;;;25.40;47.20;;;29.23;31.64;101202.38;5153753;27;20054;-48
2021/06/12 06:19:42;;;;;;;1.05;0.98;;;25.40;47.20;;;29.24;31.60;101196.00;5153526;27;20053;-48
2021/06/12 06:22:08;;;;;;;1.13;1.00;;;25.40;47.20;;;29.24;31.51;101196.00;5153506;27;20050;-51
2021/06/12 06:24:34;;;;;;;1.10;1.00;;;25.40;47.20;;;29.22;31.69;101186.34;5153520;27;20050;-49
2021/06/12 06:26:59;;;;;;;2.03;1.02;;;25.40;47.20;;;29.18;31.73;101177.69;5153780;27;20047;-51
2021/06/12 06:29:25;;;;;;;1.05;0.90;;;25.40;47.20;;;29.24;31.95;101179.00;5134830;27;20050;-51
2021/06/12 06:31:51;;;;;;;0.95;0.95;;;25.40;47.20;;;29.19;31.88;101166.78;5153443;27;20491;-52
2021/06/12 06:34:17;;;;;;;1.20;1.10;;;25.40;47.20;;;29.23;31.92;101169.19;5153636;27;20054;-48
2021/06/12 06:36:42;;;;;;;0.90;0.90;;;25.40;47.10;;;29.24;31.58;101169.06;5153210;27;20495;-47
2021/06/12 06:39:08;;;;;;;0.98;0.98;;;25.40;47.10;;;29.24;31.70;101176.31;5134829;27;20483;-50
2021/06/12 06:41:34;;;;;;;0.85;0.85;;;25.40;47.10;;;29.25;31.79;101172.59;5153270;27;20555;-51
2021/06/12 06:44:00;;;;;;;1.25;1.00;;;25.40;47.10;;;29.27;31.85;101176.00;5155699;27;20495;-51
2021/06/12 06:46:25;;;;;;;1.00;0.90;;;25.50;47.20;;;29.26;31.50;101172.47;5157231;27;20042;-48
2021/06/12 06:48:51;;;;;;;1.05;1.00;;;25.40;47.10;;;29.26;31.52;101169.75;5156886;27;20049;-53
2021/06/12 06:51:17;;;;;;;1.10;1.10;;;25.40;47.00;;;29.26;31.52;101169.75;5156716;27;20039;-50
2021/06/12 06:53:43;;;;;;;1.25;1.15;;;25.50;47.10;;;29.24;31.83;101163.69;5156714;27;20188;-48
2021/06/12 06:56:10;;;;;;;1.17;1.10;;;25.50;47.10;;;29.25;31.46;101167.22;5156603;27;20154;-54
2021/06/12 06:58:37;;;;;;;1.10;1.10;;;25.50;47.10;;;29.23;31.72;101161.97;5137808;27;20518;-47
2021/06/12 07:01:03;;;;;;;1.00;1.00;;;25.50;47.10;;;29.25;31.62;101159.97;5137885;27;20046;-51
2021/06/12 07:03:28;;;;;;;1.13;1.10;;;25.40;47.10;;;29.27;31.73;101163.41;5156195;27;20084;-52
2021/06/12 07:05:54;;;;;;;1.10;1.00;;;25.50;47.20;;;29.25;31.70;101162.66;5156258;27;20051;-54
2021/06/12 07:08:20;;;;;;;1.25;1.00;;;25.40;47.10;;;29.25;31.75;101157.28;5156535;27;20051;-48
2021/06/12 07:10:46;;;;;;;1.13;1.00;;;25.50;47.20;;;29.23;31.45;101158.44;5156244;27;20050;-50
2021/06/12 07:13:12;;;;;;;1.35;1.20;;;25.40;47.10;;;29.25;31.71;101162.66;5135690;27;20047;-48
2021/06/12 07:15:38;;;;;;;0.80;0.80;;;25.50;47.20;;;29.26;31.70;101155.47;5156308;27;20130;-49
2021/06/12 07:18:04;;;;;;;1.15;1.15;;;25.50;47.20;;;29.24;31.61;101152.06;5155964;27;20050;-45
2021/06/12 07:20:29;;;;;;;2.08;1.00;;;25.50;47.10;;;29.28;31.74;101157.00;5156203;27;20129;-50
2021/06/12 07:22:56;;;;;;;1.20;1.10;;;25.50;47.10;;;29.25;31.94;101156.44;5156206;27;20096;-49
2021/06/12 07:25:22;;;;;;;1.00;1.00;;;25.50;47.10;;;29.23;31.87;101161.13;5156194;27;20043;-49
2021/06/12 07:27:48;;;;;;;1.58;1.10;;;25.50;47.20;;;29.19;31.88;101166.78;5156126;27;20047;-47
2021/06/12 07:30:14;;;;;;;1.13;1.00;;;25.50;47.20;;;29.16;31.65;101152.72;5156448;27;20476;-50
2021/06/12 07:32:40;;;;;;;1.35;1.25;;;25.40;47.20;;;29.20;31.63;101173.03;5155989;27;20047;-52
2021/06/12 07:35:06;;;;;;;1.30;1.20;;;25.40;47.20;;;29.19;31.85;101165.94;5156001;27;20054;-51
2021/06/12 07:37:32;;;;;;;1.20;1.10;;;25.40;47.20;;;29.17;32.08;101170.63;5155923;27;20078;-49
2021/06/12 07:39:58;;;;;;;1.30;1.00;;;25.40;47.30;;;29.15;31.91;101161.78;5155882;27;20050;-49
2021/06/12 07:42:24;;;;;;;0.90;0.90;;;25.40;47.20;;;29.15;31.93;101172.56;5156339;27;20050;-47
2021/06/12 07:44:49;;;;;;;1.00;0.90;;;25.40;47.20;;;29.19;31.89;101180.25;5155873;27;20513;-44
2021/06/12 07:47:15;;;;;;;0.80;0.80;;;25.40;47.20;;;29.17;31.78;101159.88;5156088;27;20051;-46
2021/06/12 07:49:41;;;;;;;1.58;1.00;;;25.40;47.20;;;29.22;31.60;101168.38;5155742;27;20137;-45
2021/06/12 07:52:07;;;;;;;1.55;1.00;;;25.50;47.20;;;29.23;31.86;101170.03;5155737;27;20510;-46
2021/06/12 07:54:32;;;;;;;0.80;0.80;;;25.50;47.20;;;29.23;31.90;101169.19;5155076;27;20043;-46
2021/06/12 07:56:58;;;;;;;1.20;1.10;;;25.50;47.20;;;29.25;31.94;101168.06;5137313;27;20043;-48
2021/06/12 07:59:24;;;;;;;1.50;1.17;;;25.50;47.20;;;29.26;31.89;101172.47;5155727;27;20042;-45
2021/06/12 08:01:50;;;;;;;0.95;0.90;;;25.50;47.20;;;29.24;31.54;101165.53;5155613;27;20057;-48
2021/06/12 08:04:16;;;;;;;1.40;0.80;;;25.50;47.20;;;29.26;31.75;101174.31;5136294;27;20373;-49
2021/06/12 08:06:41;;;;;;;1.17;0.90;;;25.50;47.20;;;29.22;31.93;101164.81;5155477;27;20046;-46
2021/06/12 08:09:07;;;;;;;0.98;0.98;;;25.50;47.20;;;29.23;31.76;101182.66;5155409;27;20518;-45
2021/06/12 08:11:33;;;;;;;0.90;0.90;;;25.50;47.20;;;29.23;31.85;101180.81;5155924;27;20522;-47
2021/06/12 08:14:00;;;;;;;1.35;0.95;;;25.50;47.20;;;29.25;31.72;101183.38;5155379;27;20395;-47
2021/06/12 08:16:26;;;;;;;1.10;1.00;;;25.40;47.20;;;29.23;31.83;101186.22;5155189;27;20043;-50
2021/06/12 08:18:52;;;;;;;0.95;0.95;;;25.40;47.40;;;29.20;31.67;101183.78;5155247;27;20114;-47
2021/06/12 08:21:18;;;;;;;0.98;0.90;;;25.40;47.20;;;29.19;31.75;101195.56;5155181;27;20069;-47
2021/06/12 08:23:44;;;;;;;1.00;1.00;;;25.40;47.30;;;29.17;31.84;101192.19;5155097;27;20047;-50
2021/06/12 08:26:11;;;;;;;1.48;1.00;;;25.40;47.30;;;29.20;32.08;101194.56;5136498;27;20038;-48
2021/06/12 08:28:36;;;;;;;1.15;1.08;;;25.40;47.30;;;29.24;32.00;101201.38;5155160;27;20134;-48
2021/06/12 08:31:04;;;;;;;1.13;1.02;;;25.50;47.30;;;29.27;32.06;101193.03;5154694;27;20047;-48
2021/06/12 08:33:30;;;;;;;1.52;1.15;;;25.50;47.20;;;29.34;31.55;101196.84;5154868;27;20583;-47
2021/06/12 08:35:56;;;;;;;1.08;1.05;;;25.60;47.10;;;29.39;31.77;101199.13;5154877;27;20047;-50
2021/06/12 08:38:22;;;;;;;1.50;1.30;;;25.60;47.00;;;29.47;31.59;101207.34;5154746;27;20437;-49
2021/06/12 08:40:48;;;;;;;1.40;1.30;;;25.70;46.90;;;29.47;31.73;101206.47;5154851;27;20062;-53
2021/06/12 08:43:23;;;;;;;1.48;1.20;;;25.70;46.80;;;29.51;31.56;101218.66;5155425;27;20127;-47
2021/06/12 08:45:49;;;;;;;1.70;0.77;;;25.70;46.80;;;29.57;31.46;101220.81;5154999;27;20055;-46
2021/06/12 08:48:16;;;;;;;1.05;0.90;;;25.80;46.80;;;29.59;31.28;101217.94;5134436;27;20047;-50
2021/06/12 08:50:44;;;;;;;0.93;0.90;;;25.80;46.70;;;29.62;31.36;101214.94;5155088;27;20433;-47
2021/06/12 08:53:11;;;;;;;1.27;1.17;;;25.80;46.50;;;29.68;31.12;101212.53;5154979;27;20051;-45
2021/06/12 08:55:38;;;;;;;1.10;1.00;;;25.90;46.50;;;29.75;31.05;101215.50;5155035;27;20480;-50
2021/06/12 08:58:04;;;;;;;1.63;1.30;;;25.90;46.40;;;29.74;31.11;101211.13;5154675;27;20051;-48
2021/06/12 09:00:30;;;;;;;1.83;1.08;;;26.00;46.40;;;29.79;31.17;101218.78;5154964;27;20050;-48
2021/06/12 09:03:16;;;;;;;1.10;1.00;;;26.00;46.40;;;29.77;31.21;101218.97;5154560;27;20047;-51
2021/06/12 09:06:00;;;;;;;1.73;1.10;;;25.90;46.30;;;29.78;31.01;101220.63;5154596;27;20129;-50
2021/06/12 09:08:31;;;;;;;1.20;1.10;;;26.00;46.40;;;29.82;30.92;101208.59;5154068;27;20055;-51
2021/06/12 09:11:06;;;;;;;0.88;0.88;;;26.00;46.40;;;29.83;31.00;101223.75;5154195;27;20176;-46
2021/06/12 09:13:48;;;;;;;1.00;1.00;;;26.00;46.30;;;29.84;30.75;101221.94;5154631;27;20039;-50
2021/06/12 09:16:32;;;;;;;1.23;1.10;;;26.00;46.30;;;29.88;31.02;101221.47;5154832;27;20039;-49
2021/06/12 09:19:15;;;;;;;1.10;1.00;;;26.00;46.20;;;29.90;30.94;101215.94;5154229;27;20047;-48
2021/06/12 09:21:51;;;;;;;1.27;1.17;;;26.10;46.30;;;29.91;30.80;101233.81;5154403;27;20039;-48
2021/06/12 09:24:49;;;;;;;1.42;1.08;;;26.10;46.20;;;29.97;30.93;101240.47;5154912;27;20047;-47
2021/06/12 09:27:18;;;;;;;1.27;1.17;;;26.10;46.10;;;30.03;30.71;101237.19;5154304;27;20074;-47
2021/06/12 09:29:52;;;;;;;1.10;1.00;;;26.10;46.10;;;30.05;30.84;101240.59;5154225;27;20050;-49
2021/06/12 09:32:24;;;;;;;1.35;1.10;;;26.10;46.00;;;30.07;30.73;101225.97;5154619;27;20517;-48
2021/06/12 09:35:07;;;;;;;0.90;0.90;;;26.20;46.00;;;30.11;30.70;101238.16;5135702;27;20051;-49
2021/06/12 09:37:34;;;;;;;1.00;1.00;;;26.20;45.90;;;30.15;30.49;101230.63;5154733;27;20058;-51
2021/06/12 09:40:07;;;;;;;1.25;1.15;;;26.20;45.90;;;30.15;30.53;101237.88;5153992;27;20047;-48
2021/06/12 09:42:41;;;;;;;1.00;0.95;;;26.20;45.80;;;30.18;30.67;101230.31;5154079;27;20403;-52
2021/06/12 09:45:10;;;;;;;1.00;1.00;;;26.20;45.80;;;30.20;30.29;101206.75;5154149;27;20039;-52
2021/06/12 09:47:35;;;;;;;1.20;1.13;;;26.30;45.80;;;30.24;30.31;101218.94;5154030;27;20051;-49
2021/06/12 09:50:04;;;;;;;1.05;1.05;;;26.30;45.80;;;30.24;30.35;101227.03;5153943;27;20171;-50
2021/06/12 09:52:45;;;;;;;1.30;1.20;;;26.30;45.80;;;30.27;30.35;101233.97;5153873;27;20086;-49
2021/06/12 09:55:28;;;;;;;1.33;1.23;;;26.30;45.70;;;30.30;30.25;101229.16;5154310;27;20373;-47
2021/06/12 09:57:56;;;;;;;0.80;0.80;;;26.30;45.70;;;30.34;30.21;101228.84;5154024;27;20046;-47
2021/06/12 10:00:41;;;;;;;1.20;1.10;;;26.30;45.70;;;30.32;30.32;101218.19;5153896;27;20039;-53
2021/06/12 10:03:28;;;;;;;0.77;0.77;;;26.30;45.70;;;30.33;30.34;101222.59;5154203;27;20042;-50
2021/06/12 10:06:23;;;;;;;0.80;0.80;;;26.30;45.60;;;30.37;30.22;101239.38;5153649;27;20054;-45
2021/06/12 10:08:51;;;;;;;0.80;0.80;;;26.30;45.50;;;30.39;30.08;101235.53;5153876;27;20046;-53
2021/06/12 10:11:23;;;;;;;1.15;1.05;;;26.40;45.60;;;30.38;30.13;101241.09;5153835;27;20051;-49
2021/06/12 10:13:49;;;;;;;1.10;0.98;;;26.40;45.50;;;30.41;30.18;101252.41;5153671;27;20039;-46
2021/06/12 10:16:16;;;;;;;0.80;0.80;;;26.40;45.50;;;30.42;30.09;101258.66;5153735;27;20057;-51
2021/06/12 10:18:47;;;;;;;0.85;0.85;;;26.40;45.50;;;30.39;30.30;101257.13;5155914;27;20049;-52